In Rescue
 
Open Full Screen Window  High Contrast Mode
Wind Gusting 00 knots
06
April 02, 2020 9:55 PM CDT
Weather Information
Wind Direction
  090 °
Wind Speed
  06 kt (7 mph)
Wind Gust
  00 kt (0 mph)
Altimeter
29.93 in
Visibility
10 SM
Temperature
06° C
43° F
Dewpoint
02° C
36° F
Humidity
76%
1hr Rain Fall
00.00 in.
24hr Rain Fall
00.20 in.
Sky Condition
Overcast @ 4,100 ft
VFR

METAR KHZX 030255Z AUTO 09006KT 10SM OVC041 06/02 A2993 RMK AO1

FAA Disclaimer: The data displayed is for advisory purposes only and is not to be used for flight planning or operations.